Time;durP1;ratioP1;P1;durP2;ratioP2;P2;SDS_P1;SDS_P2;PMS_P1;PMS_P2;Temp;Humidity;BMP_temperature;BMP_pressure;BME280_temperature;BME280_humidity;BME280_pressure;Samples;Min_cycle;Max_cycle;Signal;HPM_P1;HPM_P2
2022/05/31 00:02:55;;;;;;;14.52;10.75;;;;;;;6.28;100.00;101488.19;10298596;28;20043;-68
2022/05/31 00:07:56;;;;;;;14.63;10.70;;;;;;;6.37;100.00;101500.59;10281173;28;20043;-68
2022/05/31 00:12:56;;;;;;;14.18;10.60;;;;;;;6.43;100.00;101493.47;10297726;28;20043;-68
2022/05/31 00:17:57;;;;;;;18.70;12.52;;;;;;;6.51;100.00;101493.25;10298364;28;20091;-68
2022/05/31 00:22:57;;;;;;;22.60;14.60;;;;;;;6.57;100.00;101489.63;10297499;28;20050;-68
2022/05/31 00:27:57;;;;;;;19.88;13.27;;;;;;;6.60;100.00;101477.44;10298324;28;20110;-68
2022/05/31 00:32:58;;;;;;;24.70;14.30;;;;;;;6.67;100.00;101481.00;10279463;28;20495;-66
2022/05/31 00:37:59;;;;;;;15.73;11.35;;;;;;;6.75;100.00;101490.88;10263723;28;20073;-68
2022/05/31 00:43:02;;;;;;;15.82;10.63;;;;;;;6.81;100.00;101470.88;10297217;28;20524;-68
2022/05/31 00:48:05;;;;;;;13.45;10.50;;;;;;;6.85;100.00;101480.31;10279685;28;20541;-68
2022/05/31 00:53:09;;;;;;;14.90;10.55;;;;;;;6.87;100.00;101484.53;10264748;28;20089;-67
2022/05/31 00:58:15;;;;;;;14.40;11.10;;;;;;;6.89;100.00;101481.56;10264672;28;20043;-68
2022/05/31 01:03:19;;;;;;;17.75;12.90;;;;;;;6.92;100.00;101478.41;10279414;28;20411;-68
2022/05/31 01:08:19;;;;;;;19.77;12.27;;;;;;;7.02;100.00;101491.63;10278425;28;20057;-68
2022/05/31 01:13:20;;;;;;;17.00;11.73;;;;;;;7.02;100.00;101487.00;10295772;28;20648;-69
2022/05/31 01:18:20;;;;;;;19.23;13.60;;;;;;;7.14;100.00;101489.91;10278961;28;20090;-69
2022/05/31 01:23:20;;;;;;;21.30;12.27;;;;;;;7.21;100.00;101477.06;10296355;28;20063;-69
2022/05/31 01:28:29;;;;;;;21.83;12.60;;;;;;;7.26;100.00;101470.91;10278730;28;20048;-69
2022/05/31 01:34:01;;;;;;;18.58;13.52;;;;;;;7.40;100.00;101467.06;10295386;28;20085;-69
2022/05/31 01:39:13;;;;;;;28.77;15.85;;;;;;;7.45;100.00;101475.44;10260550;28;20410;-68
2022/05/31 01:44:15;;;;;;;22.40;15.18;;;;;;;7.48;100.00;101475.03;10260738;28;20043;-68
2022/05/31 01:49:15;;;;;;;24.10;15.00;;;;;;;7.54;100.00;101472.44;10277471;28;20071;-67
2022/05/31 01:54:16;;;;;;;19.85;14.07;;;;;;;7.60;100.00;101471.56;10277546;28;20063;-68
2022/05/31 01:59:16;;;;;;;19.05;12.70;;;;;;;7.62;100.00;101469.44;10277470;28;20038;-68
2022/05/31 02:04:17;;;;;;;16.65;12.35;;;;;;;7.61;100.00;101473.25;10276941;28;20082;-68
2022/05/31 02:09:17;;;;;;;17.10;11.90;;;;;;;7.60;100.00;101474.31;10259702;28;20035;-68
2022/05/31 02:14:18;;;;;;;15.50;11.27;;;;;;;7.63;100.00;101466.50;10292303;28;20042;-67
2022/05/31 02:19:25;;;;;;;18.25;11.20;;;;;;;7.64;100.00;101467.31;10294679;28;20411;-69
2022/05/31 02:24:25;;;;;;;14.75;11.23;;;;;;;7.67;100.00;101466.91;10293476;28;20045;-68
2022/05/31 02:29:28;;;;;;;12.25;10.23;;;;;;;7.69;100.00;101464.78;10293704;28;20505;-68
2022/05/31 02:34:32;;;;;;;11.60;10.05;;;;;;;7.69;100.00;101459.31;10293037;28;20047;-69
2022/05/31 02:39:33;;;;;;;11.85;9.82;;;;;;;7.73;100.00;101474.25;10273427;28;20111;-68
2022/05/31 02:44:33;;;;;;;15.75;10.40;;;;;;;7.72;100.00;101464.31;10274968;28;20039;-67
2022/05/31 02:49:35;;;;;;;11.35;9.73;;;;;;;7.74;100.00;101462.19;10275612;28;20448;-68
2022/05/31 02:54:36;;;;;;;12.13;10.70;;;;;;;7.74;100.00;101464.13;10276139;28;20050;-68
2022/05/31 02:59:36;;;;;;;12.88;10.50;;;;;;;7.73;100.00;101460.53;10293088;28;20456;-67
2022/05/31 03:04:36;;;;;;;15.20;10.85;;;;;;;7.74;100.00;101458.63;10292426;28;20097;-80
2022/05/31 03:09:37;;;;;;;16.10;11.13;;;;;;;7.73;100.00;101459.69;10263895;28;20035;-80
2022/05/31 03:14:49;;;;;;;18.38;12.38;;;;;;;7.74;100.00;101456.72;10277149;28;20499;-77
2022/05/31 03:19:52;;;;;;;14.85;11.73;;;;;;;7.77;100.00;101456.28;10259593;28;20041;-79
2022/05/31 03:24:56;;;;;;;17.88;13.30;;;;;;;7.79;100.00;101458.78;10259861;28;20062;-79
2022/05/31 03:29:56;;;;;;;18.98;14.25;;;;;;;7.81;100.00;101457.53;10275349;28;20059;-79
2022/05/31 03:34:57;;;;;;;18.60;13.45;;;;;;;7.84;100.00;101454.34;10274790;28;20075;-79
2022/05/31 03:39:57;;;;;;;18.70;14.77;;;;;;;7.89;100.00;101453.66;10257763;28;20051;-79
2022/05/31 03:44:58;;;;;;;22.95;16.65;;;;;;;7.95;100.00;101460.16;10292514;28;20049;-77
2022/05/31 03:49:58;;;;;;;22.65;17.27;;;;;;;8.00;100.00;101454.84;10292459;28;20074;-77
2022/05/31 03:54:58;;;;;;;19.65;15.88;;;;;;;8.07;100.00;101452.91;10292485;28;20112;-79
2022/05/31 03:59:59;;;;;;;17.83;13.45;;;;;;;8.16;100.00;101447.97;10297356;28;20035;-77
2022/05/31 04:05:00;;;;;;;20.17;13.38;;;;;;;8.22;100.00;101453.38;10299054;28;20046;-77
2022/05/31 04:10:05;;;;;;;16.90;12.35;;;;;;;8.27;100.00;101448.09;10296905;28;20046;-76
2022/05/31 04:15:06;;;;;;;16.25;13.43;;;;;;;8.34;100.00;101455.41;10266005;28;20039;-76
2022/05/31 04:20:07;;;;;;;16.20;13.48;;;;;;;8.40;100.00;101460.00;10298916;28;20059;-76
2022/05/31 04:25:08;;;;;;;18.23;13.60;;;;;;;8.46;100.00;101443.50;10298863;28;20503;-77
2022/05/31 04:30:08;;;;;;;16.98;11.35;;;;;;;8.52;100.00;101449.16;10299278;28;20042;-79
2022/05/31 04:35:09;;;;;;;13.40;10.63;;;;;;;8.58;100.00;101446.34;10268738;28;20042;-79
2022/05/31 04:40:10;;;;;;;11.40;9.35;;;;;;;8.64;100.00;101444.56;10280705;28;20043;-79
2022/05/31 04:45:11;;;;;;;11.23;9.15;;;;;;;8.75;100.00;101441.09;10279874;28;20515;-79
2022/05/31 04:50:11;;;;;;;14.32;9.82;;;;;;;8.86;100.00;101436.72;10297716;28;20050;-78
2022/05/31 04:55:11;;;;;;;13.95;9.50;;;;;;;9.02;100.00;101441.59;10280332;28;20165;-76
2022/05/31 05:00:13;;;;;;;12.38;9.35;;;;;;;9.14;100.00;101438.09;10296713;28;20051;-79
2022/05/31 05:05:13;;;;;;;14.32;10.20;;;;;;;9.24;100.00;101438.34;10279863;28;20050;-79
2022/05/31 05:10:13;;;;;;;13.30;10.15;;;;;;;9.30;100.00;101437.44;10296750;28;20058;-76
2022/05/31 05:15:14;;;;;;;11.43;9.75;;;;;;;9.42;100.00;101438.31;10270160;28;20046;-79
2022/05/31 05:20:14;;;;;;;12.30;9.05;;;;;;;9.49;100.00;101436.34;10296261;28;20042;-76
2022/05/31 05:25:15;;;;;;;11.48;8.38;;;;;;;9.60;100.00;101436.63;10296125;28;20039;-77
2022/05/31 05:35:34;;;;;;;9.68;8.25;;;;;;;9.74;100.00;101432.59;10296055;28;20050;-79
2022/05/31 05:40:35;;;;;;;10.23;8.13;;;;;;;9.77;100.00;101426.59;10295027;28;20047;-78
2022/05/31 05:45:36;;;;;;;10.70;8.68;;;;;;;9.86;100.00;101427.97;10277976;28;20053;-76
2022/05/31 05:50:36;;;;;;;11.63;9.05;;;;;;;10.00;100.00;101427.72;10277820;28;20443;-76
2022/05/31 05:55:37;;;;;;;11.38;8.75;;;;;;;10.15;100.00;101428.13;10277576;28;20049;-77
2022/05/31 06:00:43;;;;;;;9.88;8.38;;;;;;;10.29;100.00;101421.34;10294905;28;20043;-80
2022/05/31 06:05:44;;;;;;;9.18;7.97;;;;;;;10.50;100.00;101419.91;10294869;28;20030;-79
2022/05/31 06:10:53;;;;;;;9.18;7.78;;;;;;;10.83;100.00;101432.19;10260110;28;20035;-79
2022/05/31 06:15:54;;;;;;;9.68;8.07;;;;;;;11.01;100.00;101424.84;10260202;28;20034;-78
2022/05/31 06:20:57;;;;;;;9.63;7.13;;;;;;;11.36;100.00;101437.66;10276119;28;20050;-80
2022/05/31 06:25:58;;;;;;;9.90;7.40;;;;;;;11.59;100.00;101432.03;10260513;28;20061;-78
2022/05/31 06:30:58;;;;;;;10.35;7.05;;;;;;;11.86;100.00;101425.88;10276742;28;20031;-80
2022/05/31 06:36:01;;;;;;;7.38;6.55;;;;;;;12.11;100.00;101425.50;10293979;28;20102;-80
2022/05/31 06:41:02;;;;;;;6.93;5.65;;;;;;;12.19;100.00;101419.56;10293172;28;20039;-78
2022/05/31 06:46:10;;;;;;;6.97;6.28;;;;;;;12.39;100.00;101408.00;10292640;28;20043;-77
2022/05/31 06:51:11;;;;;;;10.57;6.18;;;;;;;12.76;100.00;101420.41;10276044;28;20035;-78
2022/05/31 07:01:37;;;;;;;7.68;5.57;;;;;;;13.08;100.00;101413.09;10293051;28;20039;-81
2022/05/31 07:06:37;;;;;;;6.93;4.97;;;;;;;13.22;100.00;101404.38;10276576;28;20057;-82
2022/05/31 07:11:38;;;;;;;6.88;5.18;;;;;;;13.45;100.00;101401.34;10274231;28;20049;-79
2022/05/31 07:16:39;;;;;;;6.88;4.85;;;;;;;13.90;100.00;101400.09;10256598;28;20039;-79
2022/05/31 07:21:39;;;;;;;6.13;4.30;;;;;;;14.18;100.00;101398.13;10273103;28;20038;-82
2022/05/31 07:26:39;;;;;;;6.25;4.05;;;;;;;14.35;100.00;101391.59;10275160;28;20038;-79
2022/05/31 07:31:42;;;;;;;8.00;4.93;;;;;;;14.50;100.00;101398.03;10293587;28;20450;-79
2022/05/31 07:36:42;;;;;;;8.43;4.47;;;;;;;14.81;100.00;101391.88;10293733;28;20476;-80
2022/05/31 07:41:43;;;;;;;7.03;4.88;;;;;;;15.11;100.00;101380.91;10263254;28;20127;-80
2022/05/31 07:46:43;;;;;;;7.07;5.22;;;;;;;15.21;100.00;101388.41;10243568;28;20465;-80
2022/05/31 07:51:44;;;;;;;5.47;4.40;;;;;;;15.16;100.00;101385.63;10260901;28;20058;-78
2022/05/31 07:56:44;;;;;;;6.53;4.00;;;;;;;14.99;100.00;101382.25;10278192;28;20047;-78
2022/05/31 08:01:45;;;;;;;7.20;4.60;;;;;;;15.11;100.00;101375.34;10280168;28;20097;-81
2022/05/31 08:06:45;;;;;;;6.93;3.97;;;;;;;15.35;100.00;101358.22;10277482;28;20518;-78
2022/05/31 08:11:46;;;;;;;9.77;4.45;;;;;;;15.47;100.00;101353.22;10276887;28;20066;-79
2022/05/31 08:16:46;;;;;;;5.32;3.47;;;;;;;15.59;100.00;101364.09;10275461;28;20062;-79
2022/05/31 08:21:47;;;;;;;5.22;3.45;;;;;;;15.48;100.00;101371.56;10289245;28;20533;-81
2022/05/31 08:26:47;;;;;;;5.18;3.08;;;;;;;15.65;100.00;101373.25;10266596;28;20525;-80
2022/05/31 08:31:48;;;;;;;5.78;3.65;;;;;;;15.91;100.00;101368.56;10278138;28;20090;-80
2022/05/31 08:36:48;;;;;;;8.80;3.22;;;;;;;16.18;100.00;101362.69;10255991;28;20046;-80
2022/05/31 08:41:50;;;;;;;5.05;3.28;;;;;;;16.33;100.00;101354.34;10247275;28;20039;-81
2022/05/31 08:46:54;;;;;;;5.70;3.13;;;;;;;16.56;100.00;101349.28;10278454;28;20038;-80
2022/05/31 08:52:04;;;;;;;5.32;2.50;;;;;;;16.78;100.00;101353.63;10297135;28;20074;-78
2022/05/31 08:57:07;;;;;;;5.50;2.67;;;;;;;16.84;93.50;101333.06;10280514;28;20533;-83
2022/05/31 09:02:14;;;;;;;7.22;3.42;;;;;;;16.63;92.65;101337.84;10264447;28;20094;-81
2022/05/31 09:07:20;;;;;;;;;;;;;;;16.24;92.58;101333.78;10264477;28;20135;-80
2022/05/31 09:12:43;;;;;;;7.68;4.88;;;;;;;16.21;95.94;101339.09;10266086;28;19922;-83
2022/05/31 09:18:10;;;;;;;6.20;3.45;;;;;;;16.62;92.81;101325.06;10277167;28;20251;-77
2022/05/31 09:23:11;;;;;;;6.35;3.08;;;;;;;16.91;87.18;101303.81;10278864;28;20035;-83
2022/05/31 09:28:34;;;;;;;7.55;3.10;;;;;;;17.58;88.04;101308.09;10262984;28;20063;-78
2022/05/31 09:33:38;;;;;;;4.30;2.63;;;;;;;17.48;86.16;101231.06;10296042;28;20043;-84
2022/05/31 09:38:41;;;;;;;3.88;2.30;;;;;;;18.42;83.04;101293.91;10262452;28;20515;-85
2022/05/31 09:43:52;;;;;;;3.78;2.63;;;;;;;18.31;80.62;101294.06;10263503;28;20039;-84
2022/05/31 09:48:53;;;;;;;4.85;2.75;;;;;;;18.24;80.81;101287.97;10254090;29;20035;-82
2022/05/31 09:59:13;;;;;;;7.13;2.88;;;;;;;18.10;79.85;101282.28;10254879;29;20115;-79
2022/05/31 10:04:30;;;;;;;4.47;2.67;;;;;;;18.19;79.33;101282.47;10221572;29;20059;-82
2022/05/31 10:09:34;;;;;;;4.15;2.70;;;;;;;17.85;80.54;101285.34;10235583;28;20050;-80
2022/05/31 10:14:36;;;;;;;5.43;3.00;;;;;;;17.51;82.51;101287.00;10257814;28;20062;-83
2022/05/31 10:19:36;;;;;;;6.50;3.08;;;;;;;17.39;85.16;101283.75;10240131;28;20043;-81
2022/05/31 10:24:37;;;;;;;4.07;2.30;;;;;;;17.49;82.48;101283.69;10255524;28;20043;-81
2022/05/31 10:29:46;;;;;;;5.18;2.53;;;;;;;17.90;81.90;101272.19;10275285;28;20039;-81
2022/05/31 10:34:47;;;;;;;5.43;2.20;;;;;;;18.26;76.14;101262.63;10238082;28;20047;-80
2022/05/31 10:39:58;;;;;;;2.80;2.17;;;;;;;18.43;74.48;101245.41;10255620;28;20039;-81
2022/05/31 10:45:02;;;;;;;4.82;2.45;;;;;;;18.21;70.65;101232.84;10255525;28;20106;-81
2022/05/31 10:50:04;;;;;;;3.97;2.53;;;;;;;17.93;71.92;101243.75;10266677;28;20049;-81
2022/05/31 10:55:35;;;;;;;5.47;2.33;;;;;;;18.02;74.95;101248.66;10297022;28;20035;-83
2022/05/31 11:00:46;;;;;;;3.58;2.08;;;;;;;18.18;72.53;101243.75;10273185;28;20043;-82
2022/05/31 11:06:02;;;;;;;2.95;1.75;;;;;;;18.44;73.16;101238.69;10292048;28;20039;-81
2022/05/31 11:11:32;;;;;;;4.65;1.90;;;;;;;18.42;70.86;101227.00;10269288;28;20047;-81
2022/05/31 11:16:42;;;;;;;3.92;2.10;;;;;;;18.74;70.38;101232.69;10299444;28;20102;-80
2022/05/31 11:21:45;;;;;;;3.03;2.00;;;;;;;18.65;70.58;101231.72;10299194;28;20130;-82
2022/05/31 11:27:06;;;;;;;2.30;2.10;;;;;;;18.51;71.96;101239.97;10283417;28;20049;-77
2022/05/31 11:32:17;;;;;;;4.90;1.73;;;;;;;18.29;71.65;101229.41;10268739;28;20043;-80
2022/05/31 11:37:44;;;;;;;2.65;1.60;;;;;;;18.27;69.24;101237.25;10282760;28;20066;-80
2022/05/31 11:43:29;;;;;;;4.65;1.60;;;;;;;18.03;68.23;101230.84;10259030;28;20094;-79
2022/05/31 11:48:53;;;;;;;5.43;1.65;;;;;;;17.87;67.32;101221.81;10164220;29;20114;-78
2022/05/31 11:54:07;;;;;;;3.38;1.67;;;;;;;18.54;66.55;101219.88;10259726;29;20047;-78
2022/05/31 11:59:15;;;;;;;2.70;1.55;;;;;;;20.62;62.79;101198.06;10294730;28;20117;-78
2022/05/31 12:04:30;;;;;;;5.57;1.75;;;;;;;22.48;58.53;101167.63;10281772;28;20042;-79
2022/05/31 12:09:46;;;;;;;3.08;1.75;;;;;;;23.78;53.60;101168.69;10281939;28;20057;-77
2022/05/31 12:14:51;;;;;;;3.10;1.65;;;;;;;23.29;51.32;101157.72;10282797;28;20589;-79
2022/05/31 12:19:59;;;;;;;2.70;1.52;;;;;;;21.99;54.68;101168.81;10265863;28;20031;-80
2022/05/31 12:25:03;;;;;;;2.13;1.40;;;;;;;21.00;53.63;101158.56;10281983;28;20038;-80
2022/05/31 12:30:16;;;;;;;3.78;1.52;;;;;;;20.12;53.05;101156.88;10265057;28;20046;-81
2022/05/31 12:35:31;;;;;;;3.60;1.20;;;;;;;19.70;53.72;101160.78;10280347;28;20062;-80
2022/05/31 12:40:34;;;;;;;3.20;1.30;;;;;;;19.66;54.67;101160.59;10297898;28;20046;-78
2022/05/31 12:45:35;;;;;;;3.55;1.25;;;;;;;19.37;56.43;101177.59;10296937;28;20129;-79
2022/05/31 12:50:54;;;;;;;3.80;1.00;;;;;;;19.27;56.97;101180.56;10280756;28;20046;-80
2022/05/31 12:55:56;;;;;;;2.20;1.10;;;;;;;19.00;55.96;101164.56;10296860;28;20047;-80
2022/05/31 13:01:17;;;;;;;3.22;1.27;;;;;;;18.61;55.58;101169.31;10280096;28;20082;-82
2022/05/31 13:06:34;;;;;;;4.10;1.23;;;;;;;18.18;57.88;101177.69;10276676;28;20142;-80
2022/05/31 13:22:14;;;;;;;4.60;1.42;;;;;;;16.93;58.06;101175.63;10275556;28;20084;-83
2022/05/31 13:27:17;;;;;;;4.38;1.30;;;;;;;16.64;59.98;101179.13;10257044;28;20035;-78
2022/05/31 13:32:18;;;;;;;2.50;1.25;;;;;;;16.47;59.78;101181.44;10241925;28;20069;-78
2022/05/31 13:37:19;;;;;;;5.03;1.33;;;;;;;16.37;61.44;101181.47;10242035;28;20045;-78
2022/05/31 13:42:27;;;;;;;4.50;1.20;;;;;;;16.30;59.97;101179.03;10290199;28;20057;-78
2022/05/31 13:47:28;;;;;;;3.40;1.33;;;;;;;16.32;61.41;101185.94;10277184;28;20062;-80
2022/05/31 13:52:29;;;;;;;2.00;1.10;;;;;;;16.18;63.48;101197.97;10278097;28;20070;-80
2022/05/31 13:57:29;;;;;;;6.00;1.70;;;;;;;16.25;65.27;101216.00;10262111;28;20045;-83
2022/05/31 14:02:52;;;;;;;3.25;1.30;;;;;;;16.28;65.35;101207.09;10295603;28;20042;-77
2022/05/31 14:07:53;;;;;;;8.57;1.88;;;;;;;16.28;66.05;101209.88;10247827;29;20043;-78
2022/05/31 14:13:03;;;;;;;2.40;1.23;;;;;;;16.38;64.72;101208.16;10220039;29;20043;-74
2022/05/31 14:18:05;;;;;;;5.30;1.58;;;;;;;16.44;65.64;101212.59;10254157;29;20046;-75
2022/05/31 14:23:08;;;;;;;7.32;1.88;;;;;;;16.40;67.03;101214.28;10254669;29;20070;-76
2022/05/31 14:28:16;;;;;;;6.03;2.10;;;;;;;16.32;69.33;101227.63;10237828;29;20062;-81
2022/05/31 14:33:18;;;;;;;3.95;1.33;;;;;;;16.18;69.88;101209.09;10254732;29;20408;-85
2022/05/31 14:38:23;;;;;;;3.35;1.70;;;;;;;16.27;71.85;101224.88;10228439;28;20030;-85
2022/05/31 14:43:29;;;;;;;4.53;1.67;;;;;;;16.26;71.04;101223.22;10292145;28;20074;-84
2022/05/31 14:48:31;;;;;;;3.78;1.85;;;;;;;16.14;72.68;101214.38;10294024;28;20046;-85
2022/05/31 14:53:36;;;;;;;4.97;1.65;;;;;;;16.17;75.93;101236.03;10260826;28;20039;-85
2022/05/31 14:58:37;;;;;;;3.38;1.65;;;;;;;16.08;76.08;101227.47;10276467;28;20058;-85
2022/05/31 15:03:57;;;;;;;5.10;1.30;;;;;;;15.98;76.77;101221.09;10293738;28;20035;-85
2022/05/31 15:09:18;;;;;;;3.47;1.63;;;;;;;16.04;75.94;101217.19;10275107;28;20094;-86
2022/05/31 15:19:38;;;;;;;4.10;1.60;;;;;;;16.28;75.28;101209.88;10262152;28;20046;-85
2022/05/31 15:24:42;;;;;;;6.80;1.90;;;;;;;16.43;74.81;101200.63;10252966;29;20035;-86
2022/05/31 15:29:43;;;;;;;8.45;3.38;;;;;;;16.57;73.24;101189.72;10236669;28;20055;-84
2022/05/31 15:34:43;;;;;;;6.95;2.75;;;;;;;16.78;72.27;101190.41;10270925;28;20046;-85
2022/05/31 15:39:45;;;;;;;4.03;2.53;;;;;;;16.93;68.59;101154.19;10270686;28;20035;-85
2022/05/31 15:44:45;;;;;;;2.78;1.60;;;;;;;17.33;69.17;101173.59;10255395;28;20067;-84
2022/05/31 15:49:47;;;;;;;2.85;1.55;;;;;;;17.47;66.87;101171.78;10275032;28;20049;-84
2022/05/31 15:54:55;;;;;;;2.22;1.63;;;;;;;17.48;66.07;101175.41;10268550;28;20113;-83
2022/05/31 15:59:55;;;;;;;2.20;1.63;;;;;;;17.40;63.68;101162.94;10244751;28;20047;-83
2022/05/31 16:04:56;;;;;;;3.30;1.83;;;;;;;17.37;63.68;101173.84;10259665;28;20039;-83
2022/05/31 16:09:56;;;;;;;7.28;2.28;;;;;;;17.37;62.13;101163.53;10275736;28;20054;-83
2022/05/31 16:14:57;;;;;;;3.85;1.80;;;;;;;17.54;66.50;101188.16;10299151;28;20035;-83
2022/05/31 16:19:58;;;;;;;4.07;1.77;;;;;;;17.58;63.68;101163.34;10282150;28;20039;-82
2022/05/31 16:25:01;;;;;;;4.47;1.88;;;;;;;17.58;63.80;101171.69;10305953;28;20039;-83
2022/05/31 16:30:01;;;;;;;3.60;1.92;;;;;;;17.55;66.54;101182.28;10330728;28;20093;-82
2022/05/31 16:35:02;;;;;;;4.63;1.65;;;;;;;17.43;66.47;101184.63;10316086;28;20050;-84
2022/05/31 16:45:21;;;;;;;7.78;2.67;;;;;;;17.98;62.69;101172.38;10297060;28;20058;-83
2022/05/31 16:50:22;;;;;;;6.50;3.90;;;;;;;17.83;60.95;101140.81;10297729;28;20054;-83
2022/05/31 16:55:23;;;;;;;8.48;3.90;;;;;;;17.88;62.99;101174.19;10279870;28;20038;-82
2022/05/31 17:00:23;;;;;;;9.93;4.45;;;;;;;17.62;64.61;101181.13;10297134;28;20035;-82
2022/05/31 17:05:24;;;;;;;5.22;3.92;;;;;;;17.16;65.97;101190.72;10278511;28;20038;-82
2022/05/31 17:15:57;;;;;;;7.30;3.67;;;;;;;16.45;69.98;101200.34;10219792;28;20046;-81
2022/05/31 17:20:57;;;;;;;6.05;2.95;;;;;;;16.17;72.53;101210.22;10296181;28;20081;-80
2022/05/31 17:26:00;;;;;;;5.60;2.90;;;;;;;16.01;76.29;101226.91;10253468;28;20054;-80
2022/05/31 17:31:01;;;;;;;7.70;3.20;;;;;;;15.84;80.40;101243.06;10238144;29;20046;-79
2022/05/31 17:36:04;;;;;;;6.30;3.35;;;;;;;15.62;81.44;101230.28;10256085;29;20046;-79
2022/05/31 17:41:28;;;;;;;6.15;2.78;;;;;;;15.76;85.54;101247.25;10238311;29;20051;-79
2022/05/31 17:46:29;;;;;;;4.00;2.80;;;;;;;15.71;85.71;101238.91;10239972;29;20074;-79
2022/05/31 17:51:31;;;;;;;3.83;2.90;;;;;;;15.43;92.33;101232.00;10254776;29;20047;-79
2022/05/31 17:56:33;;;;;;;9.27;3.20;;;;;;;15.33;93.38;101247.50;10221787;29;20042;-80
2022/05/31 18:01:34;;;;;;;7.15;3.60;;;;;;;15.02;96.97;101243.88;10254971;29;20046;-80
2022/05/31 18:06:34;;;;;;;5.43;3.50;;;;;;;14.86;99.28;101251.38;10254746;29;20035;-78
2022/05/31 18:11:35;;;;;;;9.40;4.30;;;;;;;14.63;100.00;101258.19;10254239;29;20102;-78
2022/05/31 18:16:36;;;;;;;5.57;3.90;;;;;;;14.45;100.00;101261.44;10279583;28;20050;-79
2022/05/31 18:21:37;;;;;;;5.60;3.90;;;;;;;14.33;100.00;101264.44;10292991;28;20035;-78
2022/05/31 18:26:38;;;;;;;6.63;4.20;;;;;;;14.20;100.00;101256.63;10293297;28;20093;-79
2022/05/31 18:31:38;;;;;;;7.80;5.05;;;;;;;14.08;100.00;101262.38;10283546;28;20048;-76
2022/05/31 18:41:54;;;;;;;7.22;5.15;;;;;;;13.82;100.00;101262.22;10332194;28;20495;-78
2022/05/31 18:46:55;;;;;;;7.25;5.40;;;;;;;13.57;100.00;101256.50;10315009;28;20042;-78
2022/05/31 18:51:55;;;;;;;7.63;5.22;;;;;;;13.53;100.00;101276.38;10286295;28;20066;-79
2022/05/31 18:56:56;;;;;;;6.30;5.05;;;;;;;13.41;100.00;101269.38;10292047;28;20065;-76
2022/05/31 19:01:59;;;;;;;9.02;5.25;;;;;;;13.33;100.00;101273.44;10274866;28;20030;-80
2022/05/31 19:06:59;;;;;;;6.65;5.05;;;;;;;13.18;100.00;101256.69;10292745;28;20050;-80
2022/05/31 19:11:59;;;;;;;7.55;5.40;;;;;;;13.00;100.00;101250.47;10292774;28;20058;-80
2022/05/31 19:17:00;;;;;;;5.40;4.70;;;;;;;13.02;100.00;101267.63;10292742;28;20053;-80
2022/05/31 19:22:00;;;;;;;5.85;4.55;;;;;;;12.93;100.00;101269.19;10291585;28;20039;-81
2022/05/31 19:27:01;;;;;;;5.85;5.03;;;;;;;12.84;100.00;101276.28;10258903;28;20117;-80
2022/05/31 19:32:01;;;;;;;6.32;4.57;;;;;;;12.75;100.00;101266.78;10299542;28;20039;-80
2022/05/31 19:37:02;;;;;;;10.32;4.35;;;;;;;12.63;100.00;101262.22;10282278;28;20039;-77
2022/05/31 19:42:06;;;;;;;5.90;4.53;;;;;;;12.53;100.00;101259.34;10282762;28;20047;-78
2022/05/31 19:47:07;;;;;;;5.35;4.22;;;;;;;12.52;100.00;101279.75;10282242;28;20042;-79
2022/05/31 19:52:07;;;;;;;9.32;4.80;;;;;;;12.35;100.00;101276.25;10281760;28;20592;-79
2022/05/31 19:57:28;;;;;;;10.63;5.30;;;;;;;12.29;100.00;101287.19;10266115;28;20039;-79
2022/05/31 20:02:29;;;;;;;7.95;4.07;;;;;;;12.24;100.00;101298.19;10275987;28;20129;-77
2022/05/31 20:07:29;;;;;;;6.00;4.55;;;;;;;12.14;100.00;101292.53;10262463;28;20086;-78
2022/05/31 20:12:38;;;;;;;9.00;4.25;;;;;;;12.01;100.00;101296.50;10279783;28;20373;-74
2022/05/31 20:17:38;;;;;;;7.95;4.95;;;;;;;11.79;100.00;101295.56;10280037;28;20046;-77
2022/05/31 20:22:46;;;;;;;8.30;5.63;;;;;;;11.75;100.00;101302.69;10280462;28;20039;-75
2022/05/31 20:27:47;;;;;;;9.43;5.60;;;;;;;11.64;100.00;101304.44;10264775;28;20034;-76
2022/05/31 20:32:47;;;;;;;8.75;6.18;;;;;;;11.55;100.00;101297.66;10278743;28;20102;-76
2022/05/31 20:37:47;;;;;;;10.68;5.25;;;;;;;11.45;100.00;101298.31;10278651;28;20058;-76
2022/05/31 20:42:50;;;;;;;7.65;5.57;;;;;;;11.28;100.00;101298.31;10282144;28;20061;-77
2022/05/31 20:47:50;;;;;;;8.90;5.50;;;;;;;11.25;100.00;101301.56;10251158;28;20142;-76
2022/05/31 20:52:53;;;;;;;7.80;6.88;;;;;;;11.13;100.00;101306.31;10283944;28;20132;-76
2022/05/31 20:57:54;;;;;;;7.97;6.68;;;;;;;10.95;100.00;101308.16;10268560;28;20046;-77
2022/05/31 21:02:55;;;;;;;10.60;7.15;;;;;;;10.61;100.00;101283.28;10252519;28;20047;-77
2022/05/31 21:07:56;;;;;;;8.50;6.68;;;;;;;10.64;100.00;101309.50;10234230;28;21525;-76
2022/05/31 21:12:56;;;;;;;9.25;6.70;;;;;;;10.47;100.00;101310.25;10266388;28;20049;-76
2022/05/31 21:17:57;;;;;;;9.73;7.97;;;;;;;10.33;100.00;101306.09;10283773;28;20050;-75
2022/05/31 21:22:57;;;;;;;11.45;8.43;;;;;;;10.18;100.00;101312.06;10283376;28;20045;-74
2022/05/31 21:27:59;;;;;;;11.80;7.82;;;;;;;10.13;100.00;101298.22;10250697;28;20042;-75
2022/05/31 21:32:59;;;;;;;10.10;8.13;;;;;;;10.16;100.00;101303.22;10248385;28;20043;-76
2022/05/31 21:38:01;;;;;;;13.80;8.55;;;;;;;10.16;100.00;101286.72;10248698;28;20043;-76
2022/05/31 21:43:02;;;;;;;10.63;8.52;;;;;;;10.19;100.00;101291.75;10286234;28;20047;-76
2022/05/31 21:48:04;;;;;;;12.98;9.10;;;;;;;10.18;100.00;101295.56;10293152;28;20038;-75
2022/05/31 21:53:05;;;;;;;12.23;8.82;;;;;;;10.16;100.00;101286.72;10275801;28;20039;-76
2022/05/31 21:58:05;;;;;;;10.95;9.15;;;;;;;10.18;100.00;101300.22;10276592;28;20046;-75
2022/05/31 22:03:06;;;;;;;12.45;9.85;;;;;;;10.13;100.00;101292.72;10293660;28;20046;-76
2022/05/31 22:08:08;;;;;;;13.18;8.43;;;;;;;10.10;100.00;101294.00;10293097;28;20085;-74
2022/05/31 22:13:10;;;;;;;15.68;10.02;;;;;;;10.09;100.00;101288.75;10276605;28;20584;-76
2022/05/31 22:18:11;;;;;;;13.38;9.60;;;;;;;10.08;100.00;101278.81;10275689;28;20335;-76
2022/05/31 22:23:20;;;;;;;13.40;10.07;;;;;;;9.95;100.00;101268.09;10275559;28;20486;-75
2022/05/31 22:28:21;;;;;;;15.70;10.27;;;;;;;10.02;100.00;101279.78;10276726;28;20111;-74
2022/05/31 22:33:21;;;;;;;18.27;11.38;;;;;;;9.99;100.00;101269.28;10275557;28;20064;-75
2022/05/31 22:38:26;;;;;;;14.02;10.85;;;;;;;9.96;100.00;101272.50;10288782;28;20030;-74
2022/05/31 22:43:26;;;;;;;14.80;11.57;;;;;;;9.83;100.00;101268.91;10227572;29;20035;-77
2022/05/31 22:48:27;;;;;;;17.08;12.30;;;;;;;9.67;100.00;101270.50;10235887;29;20414;-76
2022/05/31 22:53:27;;;;;;;14.85;12.30;;;;;;;9.60;100.00;101268.94;10235881;29;20058;-76
2022/05/31 22:58:35;;;;;;;18.40;12.50;;;;;;;9.45;100.00;101263.91;10253867;29;20051;-77
2022/05/31 23:03:37;;;;;;;16.20;12.45;;;;;;;9.44;100.00;101274.03;10234960;29;20106;-75
2022/05/31 23:08:37;;;;;;;20.73;13.48;;;;;;;9.35;100.00;101266.41;10235122;29;20107;-76
2022/05/31 23:13:38;;;;;;;18.75;12.73;;;;;;;9.29;100.00;101265.41;10252048;29;20046;-76
2022/05/31 23:18:39;;;;;;;16.60;12.77;;;;;;;9.33;100.00;101268.53;10234941;29;20039;-75
2022/05/31 23:23:48;;;;;;;18.80;14.75;;;;;;;9.40;100.00;101272.84;10219409;29;20111;-76
2022/05/31 23:28:50;;;;;;;23.75;16.02;;;;;;;9.48;100.00;101264.25;10235817;29;20062;-75
2022/05/31 23:33:52;;;;;;;19.10;14.38;;;;;;;9.56;100.00;101265.81;10234986;29;20039;-75
2022/05/31 23:38:52;;;;;;;20.83;15.60;;;;;;;9.59;100.00;101261.75;10233628;29;20051;-76
2022/05/31 23:43:53;;;;;;;18.23;14.55;;;;;;;9.59;100.00;101259.00;10234204;29;20115;-76
2022/05/31 23:48:55;;;;;;;20.65;15.18;;;;;;;9.59;100.00;101259.00;10255318;28;20046;-76